createdAt,value
2023-02-22T00:01:35.247Z,101494.59
2023-02-22T00:04:02.969Z,101502.75
2023-02-22T00:06:30.972Z,101498.09
2023-02-22T00:08:58.219Z,101511.41
2023-02-22T00:11:25.054Z,101506.75
2023-02-22T00:13:51.499Z,101511.88
2023-02-22T00:16:19.323Z,101504.91
2023-02-22T00:18:45.906Z,101506.19
2023-02-22T00:21:13.215Z,101497.63
2023-02-22T00:23:41.003Z,101497.28
2023-02-22T00:26:10.126Z,101491.09
2023-02-22T00:28:37.526Z,101494.28
2023-02-22T00:31:06.640Z,101507.06
2023-02-22T00:33:33.537Z,101502.44
2023-02-22T00:35:59.781Z,101498.66
2023-02-22T00:38:26.076Z,101497.03
2023-02-22T00:40:52.509Z,101501.91
2023-02-22T00:43:18.736Z,101497.84
2023-02-22T00:45:45.085Z,101497.47
2023-02-22T00:48:11.544Z,101490.00
2023-02-22T00:50:37.854Z,101494.88
2023-02-22T00:53:04.880Z,101487.38
2023-02-22T00:55:32.807Z,101483.50
2023-02-22T00:57:59.456Z,101487.66
2023-02-22T01:00:27.460Z,101488.47
2023-02-22T01:02:54.043Z,101486.00
2023-02-22T01:05:21.518Z,101487.75
2023-02-22T01:07:49.105Z,101488.78
2023-02-22T01:10:16.254Z,101478.94
2023-02-22T01:12:42.814Z,101478.00
2023-02-22T01:15:11.401Z,101475.72
2023-02-22T01:17:38.197Z,101474.06
2023-02-22T01:20:10.392Z,101467.31
2023-02-22T01:22:37.417Z,101465.31
2023-02-22T01:25:07.437Z,101461.53
2023-02-22T01:27:34.865Z,101453.44
2023-02-22T01:30:01.809Z,101459.81
2023-02-22T01:32:28.254Z,101456.16
2023-02-22T01:34:54.640Z,101457.69
2023-02-22T01:37:20.923Z,101457.84
2023-02-22T01:39:47.419Z,101456.69
2023-02-22T01:42:13.875Z,101452.06
2023-02-22T01:44:41.449Z,101455.22
2023-02-22T01:47:09.285Z,101448.56
2023-02-22T01:49:35.518Z,101452.41
2023-02-22T01:52:03.781Z,101442.47
2023-02-22T01:54:39.399Z,101440.91
2023-02-22T01:57:06.085Z,101434.47
2023-02-22T01:59:34.257Z,101429.03
2023-02-22T02:02:00.809Z,101426.06
2023-02-22T02:04:27.854Z,101432.41
2023-02-22T02:06:56.213Z,101424.84
2023-02-22T02:09:31.568Z,101425.47
2023-02-22T02:12:00.707Z,101425.66
2023-02-22T02:14:27.511Z,101427.34
2023-02-22T02:16:56.169Z,101426.28
2023-02-22T02:19:40.624Z,101420.34
2023-02-22T02:22:25.901Z,101418.13
2023-02-22T02:25:05.672Z,101420.94
2023-02-22T02:27:40.952Z,101408.66
2023-02-22T02:30:32.157Z,101420.53
2023-02-22T02:33:01.539Z,101404.41
2023-02-22T02:35:48.157Z,101401.81
2023-02-22T02:38:29.904Z,101400.72
2023-02-22T02:40:59.309Z,101393.97
2023-02-22T02:43:36.422Z,101391.81
2023-02-22T02:46:05.685Z,101389.53
2023-02-22T02:48:33.998Z,101386.66
2023-02-22T02:51:01.228Z,101388.91
2023-02-22T02:53:32.653Z,101380.25
2023-02-22T02:55:59.774Z,101376.09
2023-02-22T02:58:26.690Z,101380.59
2023-02-22T03:00:55.515Z,101375.50
2023-02-22T03:03:21.770Z,101379.78
2023-02-22T03:05:48.021Z,101374.06
2023-02-22T03:08:17.408Z,101370.66
2023-02-22T03:10:50.398Z,101364.28
2023-02-22T03:13:28.942Z,101373.63
2023-02-22T03:16:05.236Z,101365.38
2023-02-22T03:18:31.518Z,101368.25
2023-02-22T03:21:06.810Z,101362.66
2023-02-22T03:23:37.944Z,101366.63
2023-02-22T03:26:07.536Z,101363.50
2023-02-22T03:28:36.325Z,101359.78
2023-02-22T03:31:05.919Z,101357.38
2023-02-22T03:33:44.216Z,101359.41
2023-02-22T03:36:16.691Z,101359.97
2023-02-22T03:38:44.310Z,101355.28
2023-02-22T03:41:11.791Z,101357.09
2023-02-22T03:43:40.016Z,101361.28
2023-02-22T03:46:08.995Z,101356.66
2023-02-22T03:48:55.640Z,101355.53
2023-02-22T03:51:22.686Z,101353.84
2023-02-22T03:53:49.196Z,101353.94
2023-02-22T03:56:20.339Z,101352.91
2023-02-22T03:58:50.686Z,101347.53
2023-02-22T04:01:17.941Z,101340.13
2023-02-22T04:03:44.336Z,101342.56
2023-02-22T04:06:10.913Z,101340.19
2023-02-22T04:08:37.374Z,101341.06
2023-02-22T04:11:03.829Z,101340.34
2023-02-22T04:13:30.251Z,101334.38
2023-02-22T04:15:56.590Z,101333.78
2023-02-22T04:18:22.938Z,101327.50
2023-02-22T04:20:49.247Z,101325.53
2023-02-22T04:23:16.894Z,101334.34
2023-02-22T04:25:43.237Z,101328.41
2023-02-22T04:28:10.064Z,101330.84
2023-02-22T04:30:36.385Z,101326.59
2023-02-22T04:33:02.633Z,101322.59
2023-02-22T04:35:28.928Z,101331.03
2023-02-22T04:37:55.198Z,101323.81
2023-02-22T04:40:21.518Z,101320.03
2023-02-22T04:42:47.884Z,101316.41
2023-02-22T04:45:14.705Z,101310.22
2023-02-22T04:47:41.036Z,101313.03
2023-02-22T04:50:09.815Z,101312.63
2023-02-22T04:52:36.057Z,101305.72
2023-02-22T04:55:02.407Z,101298.13
2023-02-22T04:57:28.878Z,101292.69
2023-02-22T04:59:55.184Z,101292.16
2023-02-22T05:02:21.629Z,101290.53
2023-02-22T05:04:48.057Z,101289.19
2023-02-22T05:07:14.485Z,101285.13
2023-02-22T05:09:40.846Z,101283.59
2023-02-22T05:12:07.396Z,101281.56
2023-02-22T05:14:33.931Z,101278.50
2023-02-22T05:17:00.935Z,101271.94
2023-02-22T05:19:27.211Z,101273.81
2023-02-22T05:21:53.491Z,101268.25
2023-02-22T05:24:19.793Z,101270.41
2023-02-22T05:26:46.596Z,101272.00
2023-02-22T05:29:13.504Z,101270.81
2023-02-22T05:31:41.739Z,101269.75
2023-02-22T05:34:08.078Z,101260.28
2023-02-22T05:36:34.329Z,101260.59
2023-02-22T05:39:00.618Z,101260.84
2023-02-22T05:41:28.056Z,101253.34
2023-02-22T05:43:54.333Z,101255.94
2023-02-22T05:46:20.663Z,101251.41
2023-02-22T05:48:46.996Z,101249.19
2023-02-22T05:51:13.460Z,101256.84
2023-02-22T05:53:39.735Z,101250.81
2023-02-22T05:56:06.414Z,101248.91
2023-02-22T05:58:32.680Z,101245.75
2023-02-22T06:00:59.934Z,101235.22
2023-02-22T06:03:27.016Z,101232.00
2023-02-22T06:05:53.264Z,101232.47
2023-02-22T06:08:19.555Z,101244.06
2023-02-22T06:10:45.841Z,101242.06
2023-02-22T06:13:12.102Z,101242.44
2023-02-22T06:15:38.395Z,101244.31
2023-02-22T06:18:05.315Z,101243.34
2023-02-22T06:20:33.259Z,101241.34
2023-02-22T06:22:59.583Z,101241.56
2023-02-22T06:25:27.234Z,101236.59
2023-02-22T06:27:53.511Z,101238.81
2023-02-22T06:30:21.018Z,101244.16
2023-02-22T06:32:47.342Z,101248.50
2023-02-22T06:35:14.667Z,101247.69
2023-02-22T06:37:40.945Z,101244.91
2023-02-22T06:40:07.551Z,101244.69
2023-02-22T06:42:33.827Z,101245.81
2023-02-22T06:45:00.257Z,101240.38
2023-02-22T06:47:26.635Z,101238.16
2023-02-22T06:49:53.908Z,101237.44
2023-02-22T06:52:20.516Z,101230.88
2023-02-22T06:54:46.848Z,101221.38
2023-02-22T06:57:13.072Z,101224.59
2023-02-22T06:59:39.289Z,101223.69
2023-02-22T07:02:05.651Z,101220.84
2023-02-22T07:04:31.905Z,101223.94
2023-02-22T07:06:58.141Z,101226.94
2023-02-22T07:09:24.444Z,101222.44
2023-02-22T07:11:50.743Z,101223.03
2023-02-22T07:14:17.725Z,101225.91
2023-02-22T07:16:44.384Z,101218.69
2023-02-22T07:19:10.675Z,101225.00
2023-02-22T07:21:36.903Z,101224.16
2023-02-22T07:24:05.396Z,101220.16
2023-02-22T07:26:37.861Z,101228.88
2023-02-22T07:29:04.273Z,101226.81
2023-02-22T07:31:34.561Z,101223.47
2023-02-22T07:34:00.860Z,101219.44
2023-02-22T07:36:27.107Z,101217.44
2023-02-22T07:38:53.379Z,101219.09
2023-02-22T07:41:19.826Z,101227.75
2023-02-22T07:43:46.313Z,101227.53
2023-02-22T07:46:12.579Z,101235.13
2023-02-22T07:48:39.571Z,101235.63
2023-02-22T07:51:06.337Z,101225.31
2023-02-22T07:53:33.566Z,101217.13
2023-02-22T07:56:01.385Z,101219.25
2023-02-22T07:58:29.358Z,101219.03
2023-02-22T08:00:55.832Z,101217.25
2023-02-22T08:03:23.700Z,101221.06
2023-02-22T08:05:51.587Z,101222.16
2023-02-22T08:08:19.832Z,101222.63
2023-02-22T08:10:46.764Z,101215.88
2023-02-22T08:13:13.425Z,101218.13
2023-02-22T08:15:40.924Z,101217.81
2023-02-22T08:18:09.101Z,101217.56
2023-02-22T08:20:36.183Z,101218.25
2023-02-22T08:23:03.045Z,101230.13
2023-02-22T08:25:29.539Z,101223.97
2023-02-22T08:28:01.504Z,101219.34
2023-02-22T08:30:28.800Z,101201.91
2023-02-22T08:32:55.756Z,101203.34
2023-02-22T08:35:22.360Z,101202.03
2023-02-22T08:37:50.628Z,101207.25
2023-02-22T08:40:18.080Z,101212.84
2023-02-22T08:42:44.440Z,101213.78
2023-02-22T08:45:12.012Z,101215.19
2023-02-22T08:47:38.280Z,101223.53
2023-02-22T08:50:04.798Z,101230.28
2023-02-22T08:52:31.137Z,101243.47
2023-02-22T08:54:57.420Z,101236.91
2023-02-22T08:57:23.737Z,101225.03
2023-02-22T08:59:50.119Z,101232.28
2023-02-22T09:02:17.907Z,101227.66
2023-02-22T09:04:44.672Z,101231.81
2023-02-22T09:07:10.954Z,101216.28
2023-02-22T09:09:37.560Z,101217.13
2023-02-22T09:12:04.046Z,101216.41
2023-02-22T09:14:30.373Z,101212.47
2023-02-22T09:16:56.657Z,101203.94
2023-02-22T09:19:23.012Z,101202.84
2023-02-22T09:21:52.748Z,101195.97
2023-02-22T09:24:20.360Z,101184.06
2023-02-22T09:26:47.614Z,101178.94
2023-02-22T09:29:14.007Z,101177.50
2023-02-22T09:31:41.002Z,101172.97
2023-02-22T09:34:13.707Z,101163.81
2023-02-22T09:36:40.967Z,101161.44
2023-02-22T09:39:09.017Z,101170.81
2023-02-22T09:41:39.091Z,101182.25
2023-02-22T09:44:15.456Z,101175.94
2023-02-22T09:46:45.687Z,101177.84
2023-02-22T09:49:25.102Z,101173.78
2023-02-22T09:52:18.751Z,101169.22
2023-02-22T09:54:54.289Z,101157.53
2023-02-22T09:57:32.022Z,101157.63
2023-02-22T10:00:13.138Z,101157.09
2023-02-22T10:02:53.255Z,101164.31
2023-02-22T10:05:25.152Z,101163.91
2023-02-22T10:07:53.656Z,101161.06
2023-02-22T10:10:22.614Z,101162.47
2023-02-22T10:13:06.163Z,101165.59
2023-02-22T10:15:51.499Z,101163.03
2023-02-22T10:18:17.925Z,101154.56
2023-02-22T10:20:55.889Z,101156.59
2023-02-22T10:23:31.191Z,101149.03
2023-02-22T10:26:16.900Z,101155.72
2023-02-22T10:28:55.370Z,101168.56
2023-02-22T10:31:25.473Z,101154.19
2023-02-22T10:33:55.605Z,101151.34
2023-02-22T10:36:23.762Z,101150.44
2023-02-22T10:39:00.386Z,101140.94
2023-02-22T10:41:29.302Z,101136.59
2023-02-22T10:43:56.000Z,101129.84
2023-02-22T10:46:22.808Z,101124.38
2023-02-22T10:48:51.320Z,101117.47
2023-02-22T10:51:17.573Z,101124.66
2023-02-22T10:53:45.740Z,101123.00
2023-02-22T10:56:12.807Z,101122.75
2023-02-22T10:58:40.368Z,101106.78
2023-02-22T11:01:26.322Z,101113.28
2023-02-22T11:03:58.414Z,101108.03
2023-02-22T11:06:24.752Z,101114.06
2023-02-22T11:08:52.090Z,101105.22
2023-02-22T11:11:24.683Z,101103.81
2023-02-22T11:13:57.233Z,101103.41
2023-02-22T11:16:32.377Z,101103.25
2023-02-22T11:19:03.418Z,101105.44
2023-02-22T11:21:32.221Z,101101.41
2023-02-22T11:24:10.437Z,101105.63
2023-02-22T11:26:39.608Z,101107.31
2023-02-22T11:29:11.123Z,101111.41
2023-02-22T11:31:42.262Z,101104.28
2023-02-22T11:34:24.402Z,101099.97
2023-02-22T11:36:51.314Z,101099.81
2023-02-22T11:39:22.135Z,101096.47
2023-02-22T11:41:51.617Z,101085.78
2023-02-22T11:44:21.129Z,101094.00
2023-02-22T11:46:48.098Z,101088.56
2023-02-22T11:49:17.319Z,101088.13
2023-02-22T11:52:03.241Z,101079.69
2023-02-22T11:54:38.826Z,101086.13
2023-02-22T11:57:23.854Z,101093.94
2023-02-22T12:00:16.030Z,101078.94
2023-02-22T12:02:51.921Z,101080.63
2023-02-22T12:05:40.534Z,101078.41
2023-02-22T12:08:19.355Z,101068.84
2023-02-22T12:10:47.032Z,101070.41
2023-02-22T12:13:22.286Z,101073.94
2023-02-22T12:16:14.595Z,101061.44
2023-02-22T12:19:08.096Z,101063.72
2023-02-22T12:21:37.617Z,101062.31
2023-02-22T12:24:14.462Z,101066.25
2023-02-22T12:26:42.024Z,101054.88
2023-02-22T12:29:08.610Z,101056.31
2023-02-22T12:31:50.011Z,101051.13
2023-02-22T12:34:19.932Z,101045.81
2023-02-22T12:36:48.695Z,101045.75
2023-02-22T12:39:34.237Z,101042.53
2023-02-22T12:42:04.543Z,101039.59
2023-02-22T12:44:34.160Z,101032.31
2023-02-22T12:47:02.412Z,101024.50
2023-02-22T12:49:44.454Z,101016.00
2023-02-22T12:52:21.303Z,101014.94
2023-02-22T12:55:07.090Z,101019.50
2023-02-22T12:57:57.190Z,101017.88
2023-02-22T13:00:39.747Z,101013.41
2023-02-22T13:03:14.882Z,101016.56
2023-02-22T13:05:41.458Z,101022.53
2023-02-22T13:08:40.054Z,101024.53
2023-02-22T13:11:25.204Z,101031.16
2023-02-22T13:13:57.640Z,101031.31
2023-02-22T13:16:23.983Z,101031.41
2023-02-22T13:18:53.964Z,101037.25
2023-02-22T13:21:29.275Z,101036.72
2023-02-22T13:24:07.801Z,101034.63
2023-02-22T13:26:44.298Z,101040.03
2023-02-22T13:29:18.623Z,101030.56
2023-02-22T13:32:02.628Z,101038.94
2023-02-22T13:34:48.257Z,101042.22
2023-02-22T13:37:34.798Z,101046.66
2023-02-22T13:40:07.875Z,101039.88
2023-02-22T13:42:44.098Z,101048.03
2023-02-22T13:45:28.446Z,101040.44
2023-02-22T13:48:07.098Z,101033.34
2023-02-22T13:50:41.520Z,101029.97
2023-02-22T13:53:11.056Z,101028.03
2023-02-22T13:55:47.881Z,101023.44
2023-02-22T13:58:14.458Z,101024.09
2023-02-22T14:00:46.549Z,101021.41
2023-02-22T14:03:12.867Z,101014.03
2023-02-22T14:05:39.175Z,101014.72
2023-02-22T14:08:06.319Z,101023.28
2023-02-22T14:10:59.380Z,101022.44
2023-02-22T14:13:26.770Z,101028.63
2023-02-22T14:16:02.718Z,101025.16
2023-02-22T14:18:30.444Z,101023.06
2023-02-22T14:21:22.917Z,101030.81
2023-02-22T14:23:50.683Z,101018.63
2023-02-22T14:26:17.221Z,101025.22
2023-02-22T14:28:52.754Z,101024.41
2023-02-22T14:31:34.940Z,101030.81
2023-02-22T14:34:11.925Z,101023.69
2023-02-22T14:36:44.605Z,101010.16
2023-02-22T14:39:14.312Z,101016.84
2023-02-22T14:41:44.763Z,101010.63
2023-02-22T14:44:12.877Z,101024.19
2023-02-22T14:46:41.589Z,101026.47
2023-02-22T14:49:11.691Z,101031.75
2023-02-22T14:51:42.432Z,101028.75
2023-02-22T14:54:20.768Z,101037.47
2023-02-22T14:56:53.611Z,101029.88
2023-02-22T14:59:21.567Z,101033.63
2023-02-22T15:02:01.636Z,101036.56
2023-02-22T15:04:32.492Z,101040.91
2023-02-22T15:06:59.936Z,101035.41
2023-02-22T15:09:34.523Z,101039.44
2023-02-22T15:12:04.647Z,101042.38
2023-02-22T15:14:33.035Z,101035.84
2023-02-22T15:17:01.333Z,101041.97
2023-02-22T15:19:32.360Z,101043.25
2023-02-22T15:21:59.702Z,101044.38
2023-02-22T15:24:27.867Z,101041.50
2023-02-22T15:27:01.635Z,101043.16
2023-02-22T15:29:40.658Z,101042.16
2023-02-22T15:32:27.354Z,101045.25
2023-02-22T15:34:56.394Z,101045.09
2023-02-22T15:37:25.481Z,101047.09
2023-02-22T15:39:59.446Z,101041.53
2023-02-22T15:42:29.427Z,101043.69
2023-02-22T15:44:56.532Z,101048.66
2023-02-22T15:47:27.790Z,101045.63
2023-02-22T15:50:15.191Z,101044.22
2023-02-22T15:52:53.202Z,101046.03
2023-02-22T15:55:22.391Z,101052.66
2023-02-22T15:57:50.176Z,101054.91
2023-02-22T16:00:20.657Z,101055.03
2023-02-22T16:02:59.760Z,101058.34
2023-02-22T16:05:32.620Z,101055.97
2023-02-22T16:08:04.682Z,101059.84
2023-02-22T16:10:35.581Z,101057.53
2023-02-22T16:13:04.829Z,101050.50
2023-02-22T16:15:32.428Z,101056.19
2023-02-22T16:18:18.935Z,101053.41
2023-02-22T16:20:48.177Z,101046.66
2023-02-22T16:23:25.215Z,101059.22
2023-02-22T16:26:01.582Z,101064.75
2023-02-22T16:28:35.644Z,101058.16
2023-02-22T16:31:05.374Z,101066.97
2023-02-22T16:33:34.308Z,101076.09
2023-02-22T16:36:04.599Z,101072.94
2023-02-22T16:38:34.029Z,101068.25
2023-02-22T16:41:00.369Z,101069.63
2023-02-22T16:43:32.844Z,101067.97
2023-02-22T16:46:01.532Z,101068.50
2023-02-22T16:48:38.612Z,101068.94
2023-02-22T16:51:15.336Z,101067.56
2023-02-22T16:53:41.791Z,101069.06
2023-02-22T16:56:09.546Z,101071.56
2023-02-22T16:58:38.952Z,101080.94
2023-02-22T17:01:05.419Z,101076.81
2023-02-22T17:03:31.739Z,101082.19
2023-02-22T17:05:58.188Z,101086.75
2023-02-22T17:08:24.545Z,101087.84
2023-02-22T17:10:51.690Z,101093.25
2023-02-22T17:13:29.495Z,101094.47
2023-02-22T17:15:59.209Z,101106.78
2023-02-22T17:18:28.604Z,101102.78
2023-02-22T17:20:55.558Z,101107.59
2023-02-22T17:23:22.840Z,101105.94
2023-02-22T17:25:53.834Z,101105.66
2023-02-22T17:28:21.189Z,101102.91
2023-02-22T17:30:53.386Z,101101.78
2023-02-22T17:33:21.498Z,101104.97
2023-02-22T17:35:48.037Z,101108.84
2023-02-22T17:38:18.606Z,101104.72
2023-02-22T17:40:48.099Z,101104.13
2023-02-22T17:43:21.069Z,101115.69
2023-02-22T17:45:47.912Z,101110.88
2023-02-22T17:48:24.273Z,101112.38
2023-02-22T17:50:56.505Z,101124.66
2023-02-22T17:53:26.118Z,101124.94
2023-02-22T17:55:56.032Z,101123.81
2023-02-22T17:58:31.103Z,101131.69
2023-02-22T18:00:59.365Z,101128.94
2023-02-22T18:03:26.479Z,101124.94
2023-02-22T18:05:57.597Z,101135.66
2023-02-22T18:08:39.546Z,101136.50
2023-02-22T18:11:11.137Z,101134.19
2023-02-22T18:13:38.121Z,101138.16
2023-02-22T18:16:05.879Z,101142.72
2023-02-22T18:18:35.740Z,101131.94
2023-02-22T18:21:02.517Z,101138.28
2023-02-22T18:23:32.835Z,101139.78
2023-02-22T18:26:10.685Z,101142.81
2023-02-22T18:28:48.750Z,101142.81
2023-02-22T18:31:16.484Z,101143.50
2023-02-22T18:33:54.835Z,101146.13
2023-02-22T18:36:24.881Z,101146.53
2023-02-22T18:38:54.701Z,101147.78
2023-02-22T18:41:25.859Z,101153.00
2023-02-22T18:43:55.494Z,101144.72
2023-02-22T18:46:24.843Z,101145.69
2023-02-22T18:48:55.175Z,101143.06
2023-02-22T18:51:22.668Z,101145.44
2023-02-22T18:53:53.014Z,101148.47
2023-02-22T18:56:22.513Z,101148.31
2023-02-22T18:58:59.104Z,101144.75
2023-02-22T19:01:28.496Z,101146.41
2023-02-22T19:03:55.655Z,101142.69
2023-02-22T19:06:22.772Z,101142.25
2023-02-22T19:08:51.777Z,101141.16
2023-02-22T19:11:22.660Z,101147.22
2023-02-22T19:13:51.380Z,101147.09
2023-02-22T19:16:22.482Z,101141.72
2023-02-22T19:18:49.955Z,101147.94
2023-02-22T19:21:18.940Z,101149.03
2023-02-22T19:23:47.942Z,101149.84
2023-02-22T19:26:18.770Z,101152.47
2023-02-22T19:28:46.474Z,101151.91
2023-02-22T19:31:14.520Z,101157.03
2023-02-22T19:33:41.727Z,101159.50
2023-02-22T19:36:09.145Z,101159.34
2023-02-22T19:38:35.441Z,101156.03
2023-02-22T19:41:10.046Z,101161.97
2023-02-22T19:43:36.772Z,101163.53
2023-02-22T19:46:03.747Z,101157.72
2023-02-22T19:48:30.085Z,101157.28
2023-02-22T19:51:01.530Z,101158.78
2023-02-22T19:53:27.805Z,101151.91
2023-02-22T19:55:54.241Z,101157.28
2023-02-22T19:58:20.586Z,101160.47
2023-02-22T20:00:46.888Z,101158.94
2023-02-22T20:03:15.375Z,101161.41
2023-02-22T20:05:42.082Z,101162.47
2023-02-22T20:08:08.576Z,101166.09
2023-02-22T20:10:34.868Z,101158.50
2023-02-22T20:13:01.443Z,101163.63
2023-02-22T20:15:28.079Z,101162.75
2023-02-22T20:17:54.918Z,101171.00
2023-02-22T20:20:25.798Z,101169.91
2023-02-22T20:22:52.338Z,101174.59
2023-02-22T20:25:18.613Z,101171.00
2023-02-22T20:27:45.025Z,101168.78
2023-02-22T20:30:11.564Z,101175.13
2023-02-22T20:32:38.448Z,101179.38
2023-02-22T20:35:05.501Z,101178.28
2023-02-22T20:37:32.803Z,101180.91
2023-02-22T20:39:59.859Z,101191.53
2023-02-22T20:42:26.778Z,101185.19
2023-02-22T20:44:53.988Z,101191.13
2023-02-22T20:47:20.718Z,101191.25
2023-02-22T20:49:47.234Z,101179.25
2023-02-22T20:52:13.540Z,101187.56
2023-02-22T20:54:39.874Z,101192.47
2023-02-22T20:57:08.028Z,101200.50
2023-02-22T20:59:34.343Z,101202.94
2023-02-22T21:02:00.638Z,101201.59
2023-02-22T21:04:32.934Z,101194.69
2023-02-22T21:07:02.214Z,101195.25
2023-02-22T21:09:28.660Z,101198.56
2023-02-22T21:11:55.215Z,101201.06
2023-02-22T21:14:23.732Z,101206.31
2023-02-22T21:16:51.470Z,101197.88
2023-02-22T21:19:28.034Z,101203.41
2023-02-22T21:21:55.564Z,101208.63
2023-02-22T21:24:23.340Z,101210.09
2023-02-22T21:26:49.898Z,101205.16
2023-02-22T21:29:16.215Z,101205.56
2023-02-22T21:31:42.664Z,101201.31
2023-02-22T21:34:12.012Z,101198.81
2023-02-22T21:36:38.776Z,101201.31
2023-02-22T21:39:18.047Z,101200.34
2023-02-22T21:41:51.542Z,101202.81
2023-02-22T21:44:18.285Z,101206.25
2023-02-22T21:46:48.687Z,101201.84
2023-02-22T21:49:15.488Z,101203.78
2023-02-22T21:51:42.100Z,101196.19
2023-02-22T21:54:09.858Z,101197.00
2023-02-22T21:56:37.696Z,101202.53
2023-02-22T21:59:05.715Z,101200.28
2023-02-22T22:01:36.182Z,101201.09
2023-02-22T22:04:03.682Z,101189.56
2023-02-22T22:06:30.971Z,101195.88
2023-02-22T22:08:57.838Z,101199.06
2023-02-22T22:11:25.178Z,101192.06
2023-02-22T22:13:53.143Z,101194.41
2023-02-22T22:16:20.385Z,101190.13
2023-02-22T22:18:46.876Z,101195.50
2023-02-22T22:21:16.224Z,101196.72
2023-02-22T22:23:45.374Z,101203.31
2023-02-22T22:26:11.652Z,101203.03
2023-02-22T22:28:41.679Z,101201.25
2023-02-22T22:31:08.843Z,101198.47
2023-02-22T22:33:36.606Z,101198.59
2023-02-22T22:36:03.999Z,101195.38
2023-02-22T22:38:30.321Z,101204.34
2023-02-22T22:41:01.133Z,101199.22
2023-02-22T22:43:30.958Z,101204.34
2023-02-22T22:46:00.618Z,101199.34
2023-02-22T22:48:28.905Z,101198.91
2023-02-22T22:50:57.091Z,101196.97
2023-02-22T22:53:24.015Z,101200.38
2023-02-22T22:55:50.315Z,101196.78
2023-02-22T22:58:16.712Z,101204.91
2023-02-22T23:00:46.122Z,101199.69
2023-02-22T23:03:16.509Z,101203.13
2023-02-22T23:05:43.227Z,101204.34
2023-02-22T23:08:10.905Z,101201.84
2023-02-22T23:10:39.264Z,101199.94
2023-02-22T23:13:12.780Z,101207.06
2023-02-22T23:15:43.368Z,101201.03
2023-02-22T23:18:09.866Z,101202.41
2023-02-22T23:20:38.891Z,101202.09
2023-02-22T23:23:06.092Z,101204.69
2023-02-22T23:25:35.243Z,101203.06
2023-02-22T23:28:01.546Z,101201.38
2023-02-22T23:30:27.918Z,101199.63
2023-02-22T23:32:54.252Z,101198.22
2023-02-22T23:35:20.585Z,101202.22
2023-02-22T23:37:50.257Z,101203.88
2023-02-22T23:40:16.930Z,101207.59
2023-02-22T23:42:46.778Z,101211.03
2023-02-22T23:45:22.413Z,101206.38
2023-02-22T23:47:50.442Z,101207.19
2023-02-22T23:50:19.066Z,101207.19
2023-02-22T23:52:46.341Z,101209.69
2023-02-22T23:55:12.718Z,101203.63
2023-02-22T23:57:43.166Z,101211.72
